Esperanza — PD6464 — position and weather

sailwx.info

Track history (hours):
 
Tides and Currents Weather Stations Pressure Air Temp Water Temp Dewpoint Dewpoint Depression Visibility Wind Speed Wind Dir Waves Ship Positions

Esperanza

Last reported at 2015-May-21 05:17 UTC. Time now 2015-May-24 03:19 UTC.
Position N 51°12' W 128°14'.

Length 72 m; draft 4.8 m.

Type: Other ship. MMSI: 244690000.

Date/timePositionNaut miles runAvg speedWind from/ knotsBaromVisibWave heightAir tempDewpointWater temp
2015-May-21 05:17N 51°12' W 128°14'8 8.6
2015-May-21 04:24N 51°07' W 128°04'7 8.6
2015-May-21 03:33N 51°03' W 127°55'9 8.7
2015-May-21 02:33N 50°58' W 127°44'9 8.6
2015-May-21 01:33N 50°52' W 127°34'9 8.7
2015-May-21 00:33N 50°47' W 127°23'8 8.5
2015-May-20 23:33N 50°40' W 127°14'7 7.0
2015-May-20 22:33N 50°37' W 127°05'7 6.7
2015-May-20 21:33N 50°34' W 126°55'9 8.7
2015-May-20 20:33N 50°32' W 126°42'10 8.9
2015-May-20 19:27N 50°30' W 126°26'60 8.6
2015-May-20 12:24N 49°57' W 125°08'7 8.6
2015-May-20 11:33N 49°52' W 124°59'9 8.6
2015-May-20 10:33N 49°47' W 124°49'9 8.6
2015-May-20 09:33N 49°42' W 124°38'10 9.1
2015-May-20 08:30N 49°36' W 124°26'9 9.3
2015-May-20 07:33N 49°32' W 124°15'9 9.0
2015-May-20 06:33N 49°27' W 124°02'10 9.7
2015-May-20 05:32N 49°25' W 123°48'10 9.4
2015-May-20 04:31N 49°21' W 123°34'9 9.3
2015-May-20 03:33N 49°19' W 123°20'8 8.1
2015-May-20 02:33N 49°19' W 123°08'3 3.3
2015-May-20 01:30N 49°18' W 123°03'0 0.0
2015-May-20 00:33N 49°18' W 123°03'0 0.0
2015-May-19 23:33N 49°18' W 123°03'0 0.0
2015-May-19 22:33N 49°18' W 123°03'0 0.0
2015-May-19 21:33N 49°18' W 123°03'0 0.0
2015-May-19 20:33N 49°18' W 123°03'0 0.0
2015-May-19 19:33N 49°18' W 123°03'0 0.0
2015-May-19 18:33N 49°18' W 123°03'0 0.0
2015-May-19 17:33N 49°18' W 123°03'0 0.0
2015-May-19 16:33N 49°18' W 123°03'0 0.0
2015-May-19 15:33N 49°18' W 123°03'0 0.0
2015-May-19 14:30N 49°18' W 123°03'0 0.0
2015-May-19 13:33N 49°18' W 123°03'0 0.0
2015-May-19 12:33N 49°18' W 123°03'0 0.0
2015-May-19 11:33N 49°18' W 123°03'0 0.0
2015-May-19 10:33N 49°18' W 123°03'0 0.0
2015-May-19 09:30N 49°18' W 123°03'0 0.0
2015-May-19 08:33N 49°18' W 123°03'0 0.0
2015-May-19 07:33N 49°18' W 123°03'0 0.0
2015-May-19 06:33N 49°18' W 123°03'0 0.0
2015-May-19 05:33N 49°18' W 123°03'0 0.0
2015-May-19 04:30N 49°18' W 123°03'0 0.0
2015-May-19 03:33N 49°18' W 123°03'0 0.0
2015-May-19 02:33N 49°18' W 123°03'0 0.0
2015-May-19 01:33N 49°18' W 123°03'0 0.0
2015-May-19 00:33N 49°18' W 123°03'0 0.0
2015-May-18 23:33N 49°18' W 123°03'0 0.0
2015-May-18 22:33N 49°18' W 123°03'0 0.0
2015-May-18 21:33N 49°18' W 123°03'0 0.0
2015-May-18 20:33N 49°18' W 123°03'0 0.0
2015-May-18 19:33N 49°18' W 123°03'0 0.0
2015-May-18 17:19N 49°18' W 123°03'0 0.0
2015-May-18 16:29N 49°18' W 123°03'0 0.5
2015-May-18 15:33N 49°18' W 123°04'1 0.9
2015-May-18 14:33N 49°18' W 123°05'0 0.0
2015-May-18 13:20N 49°18' W 123°05'0 0.0
2015-May-17 18:31N 49°18' W 123°05'0 0.0
2015-May-17 17:31N 49°18' W 123°05'0 0.0
2015-May-17 16:31N 49°18' W 123°05'0 0.0
2015-May-17 15:31N 49°18' W 123°05'0 0.0
2015-May-17 14:31N 49°18' W 123°05'0 0.0
2015-May-17 13:31N 49°18' W 123°05'0 0.0
2015-May-17 12:31N 49°18' W 123°05'0 0.0
2015-May-17 11:31N 49°18' W 123°05'0 0.0
2015-May-17 10:31N 49°18' W 123°05'0 0.0
2015-May-17 09:31N 49°18' W 123°05'0 0.0
2015-May-17 08:31N 49°18' W 123°05'0 0.0
2015-May-17 07:31N 49°18' W 123°05'0 0.0
2015-May-17 06:31N 49°18' W 123°05'0 0.0
2015-May-17 05:31N 49°18' W 123°05'0 0.0
2015-May-17 04:31N 49°18' W 123°05'0 0.0
2015-May-17 03:31N 49°18' W 123°05'0 0.0
2015-May-17 02:28N 49°18' W 123°05'0 0.0
2015-May-17 01:31N 49°18' W 123°05'0 0.0
2015-May-17 00:31N 49°18' W 123°05'0 0.0
2015-May-16 23:31N 49°18' W 123°05'0 0.0
2015-May-16 22:31N 49°18' W 123°05'0 0.0
2015-May-16 21:31N 49°18' W 123°05'0 0.0
2015-May-16 20:31N 49°18' W 123°05'0 0.0
2015-May-16 19:31N 49°18' W 123°05'0 0.0
2015-May-16 18:31N 49°18' W 123°05'0 0.0
2015-May-16 17:31N 49°18' W 123°05'0 0.0
2015-May-16 16:31N 49°18' W 123°05'0 0.0
2015-May-16 15:28N 49°18' W 123°05'0 0.0
2015-May-16 14:28N 49°18' W 123°05'0 0.0
2015-May-16 13:28N 49°18' W 123°05'0 0.0
2015-May-16 12:31N 49°18' W 123°05'0 0.0
2015-May-16 11:31N 49°18' W 123°05'0 0.0
2015-May-16 10:31N 49°18' W 123°05'0 0.0
2015-May-16 09:31N 49°18' W 123°05'0 0.0
2015-May-16 08:31N 49°18' W 123°05'0 0.0
2015-May-16 07:31N 49°18' W 123°05'0 0.0
2015-May-16 06:31N 49°18' W 123°05'0 0.0
2015-May-16 05:31N 49°18' W 123°05'0 0.0
2015-May-16 04:31N 49°18' W 123°05'0 0.0
2015-May-16 03:31N 49°18' W 123°05'0 0.0
2015-May-16 02:31N 49°18' W 123°05'0 0.0
2015-May-16 01:31N 49°18' W 123°05'0 0.0
2015-May-16 00:31N 49°18' W 123°05'0 0.0
2015-May-15 23:31N 49°18' W 123°05'0 0.0
2015-May-15 22:31N 49°18' W 123°05'0 0.0
2015-May-15 21:31N 49°18' W 123°05'0 0.0
2015-May-15 20:31N 49°18' W 123°05'0 0.0
2015-May-15 19:31N 49°18' W 123°05'0 0.0
2015-May-15 18:31N 49°18' W 123°05'0 0.0
2015-May-15 17:31N 49°18' W 123°05'0 0.0
2015-May-15 16:31N 49°18' W 123°05'0 0.0
2015-May-15 15:31N 49°18' W 123°05'0 0.0
2015-May-15 14:31N 49°18' W 123°05'0 0.0
2015-May-15 13:31N 49°18' W 123°05'0 0.0
2015-May-15 12:31N 49°18' W 123°05'0 0.0
2015-May-15 11:31N 49°18' W 123°05'0 0.0
2015-May-15 10:34N 49°18' W 123°05'0 0.0
2015-May-15 09:31N 49°18' W 123°05'0 0.0
2015-May-15 08:31N 49°18' W 123°05'0 0.0
2015-May-15 07:30N 49°18' W 123°05'0 0.0
2015-May-15 06:33N 49°18' W 123°05'0 0.0
2015-May-15 05:31N 49°18' W 123°05'0 0.0
2015-May-15 04:28N 49°18' W 123°05'0 0.0
2015-May-15 03:33N 49°18' W 123°05'0 0.0
2015-May-15 02:31N 49°18' W 123°05'0 0.0
2015-May-15 01:27N 49°18' W 123°05'0 0.0
2015-May-15 00:33N 49°18' W 123°05'0 0.0
2015-May-14 23:31N 49°18' W 123°05'0 0.0
2015-May-14 22:33N 49°18' W 123°05'0 0.0
2015-May-14 21:31N 49°18' W 123°05'0 0.0
2015-May-14 20:30N 49°18' W 123°05'0 0.0
2015-May-14 19:33N 49°18' W 123°05'0 0.0
2015-May-14 18:31N 49°18' W 123°05'0 0.0
2015-May-14 17:33N 49°18' W 123°05'0 0.0
2015-May-14 16:33N 49°18' W 123°05'0 0.0
2015-May-14 15:34N 49°18' W 123°05'0 0.0
2015-May-14 14:33N 49°18' W 123°05'0 0.0
2015-May-14 13:33N 49°18' W 123°05'0 0.0
2015-May-14 12:33N 49°18' W 123°05'0 0.0
2015-May-14 11:33N 49°18' W 123°05'0 0.0
2015-May-14 10:33N 49°18' W 123°05'45614555.7
2015-May-14 09:33N 59°02' E 005°42'45614562.1
2015-May-14 08:33N 49°18' W 123°05'0 0.0
2015-May-14 07:33N 49°18' W 123°05'0 0.0
2015-May-14 06:33N 49°18' W 123°05'0 0.0
2015-May-14 05:34N 49°18' W 123°05'0 0.0
2015-May-14 04:33N 49°18' W 123°05'0 0.0
2015-May-14 03:33N 49°18' W 123°05'0 0.0
2015-May-14 02:30N 49°18' W 123°05'0 0.0
2015-May-14 01:31N 49°18' W 123°05'0 0.0
2015-May-14 00:31N 49°18' W 123°05'0 0.0
2015-May-13 23:33N 49°18' W 123°05'0 0.0
2015-May-13 22:33N 49°18' W 123°05'0 0.0
2015-May-13 21:33N 49°18' W 123°05'0 0.0
2015-May-13 20:33N 49°18' W 123°05'0 0.0
2015-May-13 19:33N 49°18' W 123°05'0 0.0
2015-May-13 18:33N 49°18' W 123°05'0 0.0
2015-May-13 17:33N 49°18' W 123°05'0 0.0
2015-May-13 16:33N 49°18' W 123°05'0 0.0
2015-May-13 15:33N 49°18' W 123°05'0 0.0
2015-May-13 14:33N 49°18' W 123°05'0 0.0
2015-May-13 13:33N 49°18' W 123°05'0 0.0
2015-May-13 12:33N 49°18' W 123°05'0 0.0
2015-May-13 11:33N 49°18' W 123°05'0 0.0
2015-May-13 10:33N 49°18' W 123°05'0 0.0
2015-May-13 09:33N 49°18' W 123°05'0 0.0
2015-May-13 08:30N 49°18' W 123°05'0 0.0
2015-May-13 07:33N 49°18' W 123°05'0 0.0
2015-May-13 06:33N 49°18' W 123°05'0 0.0
2015-May-13 05:33N 49°18' W 123°05'0 0.0
2015-May-13 04:33N 49°18' W 123°05'0 0.0
2015-May-13 03:33N 49°18' W 123°05'0 0.0
2015-May-13 02:33N 49°18' W 123°05'0 0.0
2015-May-13 01:33N 49°18' W 123°05'0 0.0
2015-May-13 00:33N 49°18' W 123°05'0 0.0
2015-May-12 23:33N 49°18' W 123°05'0 0.0
2015-May-12 22:33N 49°18' W 123°05'0 0.0
2015-May-12 21:33N 49°18' W 123°05'0 0.0
2015-May-12 20:30N 49°18' W 123°05'0 0.0
2015-May-12 19:33N 49°18' W 123°05'0 0.0
2015-May-12 18:33N 49°18' W 123°05'0 0.0
2015-May-12 17:33N 49°18' W 123°05'0 0.0
2015-May-12 16:33N 49°18' W 123°05'0 0.0
2015-May-12 15:33N 49°18' W 123°05'0 0.0
2015-May-12 14:33N 49°18' W 123°05'0 0.0
2015-May-12 13:33N 49°18' W 123°05'0 0.0
2015-May-12 12:33N 49°18' W 123°05'0 0.0
2015-May-12 11:33N 49°18' W 123°05'0 0.0
2015-May-12 10:33N 49°18' W 123°05'0 0.0
2015-May-12 09:33N 49°18' W 123°05'0 0.0
2015-May-12 08:33N 49°18' W 123°05'0 0.0
2015-May-12 07:33N 49°18' W 123°05'0 0.0
2015-May-12 06:33N 49°18' W 123°05'0 0.0
2015-May-12 05:33N 49°18' W 123°05'0 0.0
2015-May-12 04:33N 49°18' W 123°05'0 0.0
2015-May-12 03:33N 49°18' W 123°05'0 0.0
2015-May-12 02:33N 49°18' W 123°05'0 0.0
2015-May-12 01:33N 49°18' W 123°05'0 0.0
2015-May-12 00:33N 49°18' W 123°05'0 0.0
2015-May-11 23:33N 49°18' W 123°05'0 0.0
2015-May-11 22:33N 49°18' W 123°05'0 0.0
2015-May-11 21:33N 49°18' W 123°05'0 0.0
2015-May-11 20:33N 49°18' W 123°05'0 0.0
2015-May-11 19:33N 49°18' W 123°05'0 0.0
2015-May-11 18:33N 49°18' W 123°05'0 0.0
2015-May-11 17:30N 49°18' W 123°05'0 0.0
2015-May-11 16:33N 49°18' W 123°05'0 0.0
2015-May-11 15:33N 49°18' W 123°05'0 0.0
2015-May-11 14:33N 49°18' W 123°05'0 0.0
2015-May-11 13:33N 49°18' W 123°05'0 0.0
2015-May-11 12:33N 49°18' W 123°05'0 0.0
2015-May-11 11:33N 49°18' W 123°05'0 0.0
2015-May-11 10:33N 49°18' W 123°05'0 0.0
2015-May-11 09:33N 49°18' W 123°05'0 0.0
2015-May-11 08:33N 49°18' W 123°05'0 0.0
2015-May-11 07:33N 49°18' W 123°05'0 0.0
2015-May-11 06:33N 49°18' W 123°05'0 0.0
2015-May-11 05:33N 49°18' W 123°05'  
Track history (hours):
 
Tides and Currents Weather Stations Pressure Air Temp Water Temp Dewpoint Dewpoint Depression Visibility Wind Speed Wind Dir Waves Ship Positions

Esperanza

Last reported at 2015-May-21 05:17 UTC. Time now 2015-May-24 03:19 UTC.
Position N 51°12' W 128°14'.

Length 72 m; draft 4.8 m.

Type: Other ship. MMSI: 244690000.

Date/timePositionNaut miles runAvg speedWind from/ knotsBaromVisibWave heightAir tempDewpointWater temp
2015-May-21 05:17N 51°12' W 128°14'8 8.6
2015-May-21 04:24N 51°07' W 128°04'7 8.6
2015-May-21 03:33N 51°03' W 127°55'9 8.7
2015-May-21 02:33N 50°58' W 127°44'9 8.6
2015-May-21 01:33N 50°52' W 127°34'9 8.7
2015-May-21 00:33N 50°47' W 127°23'8 8.5
2015-May-20 23:33N 50°40' W 127°14'7 7.0
2015-May-20 22:33N 50°37' W 127°05'7 6.7
2015-May-20 21:33N 50°34' W 126°55'9 8.7
2015-May-20 20:33N 50°32' W 126°42'10 8.9
2015-May-20 19:27N 50°30' W 126°26'60 8.6
2015-May-20 12:24N 49°57' W 125°08'7 8.6
2015-May-20 11:33N 49°52' W 124°59'9 8.6
2015-May-20 10:33N 49°47' W 124°49'9 8.6
2015-May-20 09:33N 49°42' W 124°38'10 9.1
2015-May-20 08:30N 49°36' W 124°26'9 9.3
2015-May-20 07:33N 49°32' W 124°15'9 9.0
2015-May-20 06:33N 49°27' W 124°02'10 9.7
2015-May-20 05:32N 49°25' W 123°48'10 9.4
2015-May-20 04:31N 49°21' W 123°34'9 9.3
2015-May-20 03:33N 49°19' W 123°20'8 8.1
2015-May-20 02:33N 49°19' W 123°08'3 3.3
2015-May-20 01:30N 49°18' W 123°03'0 0.0
2015-May-20 00:33N 49°18' W 123°03'0 0.0
2015-May-19 23:33N 49°18' W 123°03'0 0.0
2015-May-19 22:33N 49°18' W 123°03'0 0.0
2015-May-19 21:33N 49°18' W 123°03'0 0.0
2015-May-19 20:33N 49°18' W 123°03'0 0.0
2015-May-19 19:33N 49°18' W 123°03'0 0.0
2015-May-19 18:33N 49°18' W 123°03'0 0.0
2015-May-19 17:33N 49°18' W 123°03'0 0.0
2015-May-19 16:33N 49°18' W 123°03'0 0.0
2015-May-19 15:33N 49°18' W 123°03'0 0.0
2015-May-19 14:30N 49°18' W 123°03'0 0.0
2015-May-19 13:33N 49°18' W 123°03'0 0.0
2015-May-19 12:33N 49°18' W 123°03'0 0.0
2015-May-19 11:33N 49°18' W 123°03'0 0.0
2015-May-19 10:33N 49°18' W 123°03'0 0.0
2015-May-19 09:30N 49°18' W 123°03'0 0.0
2015-May-19 08:33N 49°18' W 123°03'0 0.0
2015-May-19 07:33N 49°18' W 123°03'0 0.0
2015-May-19 06:33N 49°18' W 123°03'0 0.0
2015-May-19 05:33N 49°18' W 123°03'0 0.0
2015-May-19 04:30N 49°18' W 123°03'0 0.0
2015-May-19 03:33N 49°18' W 123°03'0 0.0
2015-May-19 02:33N 49°18' W 123°03'0 0.0
2015-May-19 01:33N 49°18' W 123°03'0 0.0
2015-May-19 00:33N 49°18' W 123°03'0 0.0
2015-May-18 23:33N 49°18' W 123°03'0 0.0
2015-May-18 22:33N 49°18' W 123°03'0 0.0
2015-May-18 21:33N 49°18' W 123°03'0 0.0
2015-May-18 20:33N 49°18' W 123°03'0 0.0
2015-May-18 19:33N 49°18' W 123°03'0 0.0
2015-May-18 17:19N 49°18' W 123°03'0 0.0
2015-May-18 16:29N 49°18' W 123°03'0 0.5
2015-May-18 15:33N 49°18' W 123°04'1 0.9
2015-May-18 14:33N 49°18' W 123°05'0 0.0
2015-May-18 13:20N 49°18' W 123°05'0 0.0
2015-May-17 18:31N 49°18' W 123°05'0 0.0
2015-May-17 17:31N 49°18' W 123°05'0 0.0
2015-May-17 16:31N 49°18' W 123°05'0 0.0
2015-May-17 15:31N 49°18' W 123°05'0 0.0
2015-May-17 14:31N 49°18' W 123°05'0 0.0
2015-May-17 13:31N 49°18' W 123°05'0 0.0
2015-May-17 12:31N 49°18' W 123°05'0 0.0
2015-May-17 11:31N 49°18' W 123°05'0 0.0
2015-May-17 10:31N 49°18' W 123°05'0 0.0
2015-May-17 09:31N 49°18' W 123°05'0 0.0
2015-May-17 08:31N 49°18' W 123°05'0 0.0
2015-May-17 07:31N 49°18' W 123°05'0 0.0
2015-May-17 06:31N 49°18' W 123°05'0 0.0
2015-May-17 05:31N 49°18' W 123°05'0 0.0
2015-May-17 04:31N 49°18' W 123°05'0 0.0
2015-May-17 03:31N 49°18' W 123°05'0 0.0
2015-May-17 02:28N 49°18' W 123°05'0 0.0
2015-May-17 01:31N 49°18' W 123°05'0 0.0
2015-May-17 00:31N 49°18' W 123°05'0 0.0
2015-May-16 23:31N 49°18' W 123°05'0 0.0
2015-May-16 22:31N 49°18' W 123°05'0 0.0
2015-May-16 21:31N 49°18' W 123°05'0 0.0
2015-May-16 20:31N 49°18' W 123°05'0 0.0
2015-May-16 19:31N 49°18' W 123°05'0 0.0
2015-May-16 18:31N 49°18' W 123°05'0 0.0
2015-May-16 17:31N 49°18' W 123°05'0 0.0
2015-May-16 16:31N 49°18' W 123°05'0 0.0
2015-May-16 15:28N 49°18' W 123°05'0 0.0
2015-May-16 14:28N 49°18' W 123°05'0 0.0
2015-May-16 13:28N 49°18' W 123°05'0 0.0
2015-May-16 12:31N 49°18' W 123°05'0 0.0
2015-May-16 11:31N 49°18' W 123°05'0 0.0
2015-May-16 10:31N 49°18' W 123°05'0 0.0
2015-May-16 09:31N 49°18' W 123°05'0 0.0
2015-May-16 08:31N 49°18' W 123°05'0 0.0
2015-May-16 07:31N 49°18' W 123°05'0 0.0
2015-May-16 06:31N 49°18' W 123°05'0 0.0
2015-May-16 05:31N 49°18' W 123°05'0 0.0
2015-May-16 04:31N 49°18' W 123°05'0 0.0
2015-May-16 03:31N 49°18' W 123°05'0 0.0
2015-May-16 02:31N 49°18' W 123°05'0 0.0
2015-May-16 01:31N 49°18' W 123°05'0 0.0
2015-May-16 00:31N 49°18' W 123°05'0 0.0
2015-May-15 23:31N 49°18' W 123°05'0 0.0
2015-May-15 22:31N 49°18' W 123°05'0 0.0
2015-May-15 21:31N 49°18' W 123°05'0 0.0
2015-May-15 20:31N 49°18' W 123°05'0 0.0
2015-May-15 19:31N 49°18' W 123°05'0 0.0
2015-May-15 18:31N 49°18' W 123°05'0 0.0
2015-May-15 17:31N 49°18' W 123°05'0 0.0
2015-May-15 16:31N 49°18' W 123°05'0 0.0
2015-May-15 15:31N 49°18' W 123°05'0 0.0
2015-May-15 14:31N 49°18' W 123°05'0 0.0
2015-May-15 13:31N 49°18' W 123°05'0 0.0
2015-May-15 12:31N 49°18' W 123°05'0 0.0
2015-May-15 11:31N 49°18' W 123°05'0 0.0
2015-May-15 10:34N 49°18' W 123°05'0 0.0
2015-May-15 09:31N 49°18' W 123°05'0 0.0
2015-May-15 08:31N 49°18' W 123°05'0 0.0
2015-May-15 07:30N 49°18' W 123°05'0 0.0
2015-May-15 06:33N 49°18' W 123°05'0 0.0
2015-May-15 05:31N 49°18' W 123°05'0 0.0
2015-May-15 04:28N 49°18' W 123°05'0 0.0
2015-May-15 03:33N 49°18' W 123°05'0 0.0
2015-May-15 02:31N 49°18' W 123°05'0 0.0
2015-May-15 01:27N 49°18' W 123°05'0 0.0
2015-May-15 00:33N 49°18' W 123°05'0 0.0
2015-May-14 23:31N 49°18' W 123°05'0 0.0
2015-May-14 22:33N 49°18' W 123°05'0 0.0
2015-May-14 21:31N 49°18' W 123°05'0 0.0
2015-May-14 20:30N 49°18' W 123°05'0 0.0
2015-May-14 19:33N 49°18' W 123°05'0 0.0
2015-May-14 18:31N 49°18' W 123°05'0 0.0
2015-May-14 17:33N 49°18' W 123°05'0 0.0
2015-May-14 16:33N 49°18' W 123°05'0 0.0
2015-May-14 15:34N 49°18' W 123°05'0 0.0
2015-May-14 14:33N 49°18' W 123°05'0 0.0
2015-May-14 13:33N 49°18' W 123°05'0 0.0
2015-May-14 12:33N 49°18' W 123°05'0 0.0
2015-May-14 11:33N 49°18' W 123°05'0 0.0
2015-May-14 10:33N 49°18' W 123°05'45614555.7
2015-May-14 09:33N 59°02' E 005°42'45614562.1
2015-May-14 08:33N 49°18' W 123°05'0 0.0
2015-May-14 07:33N 49°18' W 123°05'0 0.0
2015-May-14 06:33N 49°18' W 123°05'0 0.0
2015-May-14 05:34N 49°18' W 123°05'0 0.0
2015-May-14 04:33N 49°18' W 123°05'0 0.0
2015-May-14 03:33N 49°18' W 123°05'0 0.0
2015-May-14 02:30N 49°18' W 123°05'0 0.0
2015-May-14 01:31N 49°18' W 123°05'0 0.0
2015-May-14 00:31N 49°18' W 123°05'0 0.0
2015-May-13 23:33N 49°18' W 123°05'0 0.0
2015-May-13 22:33N 49°18' W 123°05'0 0.0
2015-May-13 21:33N 49°18' W 123°05'0 0.0
2015-May-13 20:33N 49°18' W 123°05'0 0.0
2015-May-13 19:33N 49°18' W 123°05'0 0.0
2015-May-13 18:33N 49°18' W 123°05'0 0.0
2015-May-13 17:33N 49°18' W 123°05'0 0.0
2015-May-13 16:33N 49°18' W 123°05'0 0.0
2015-May-13 15:33N 49°18' W 123°05'0 0.0
2015-May-13 14:33N 49°18' W 123°05'0 0.0
2015-May-13 13:33N 49°18' W 123°05'0 0.0
2015-May-13 12:33N 49°18' W 123°05'0 0.0
2015-May-13 11:33N 49°18' W 123°05'0 0.0
2015-May-13 10:33N 49°18' W 123°05'0 0.0
2015-May-13 09:33N 49°18' W 123°05'0 0.0
2015-May-13 08:30N 49°18' W 123°05'0 0.0
2015-May-13 07:33N 49°18' W 123°05'0 0.0
2015-May-13 06:33N 49°18' W 123°05'0 0.0
2015-May-13 05:33N 49°18' W 123°05'0 0.0
2015-May-13 04:33N 49°18' W 123°05'0 0.0
2015-May-13 03:33N 49°18' W 123°05'0 0.0
2015-May-13 02:33N 49°18' W 123°05'0 0.0
2015-May-13 01:33N 49°18' W 123°05'0 0.0
2015-May-13 00:33N 49°18' W 123°05'0 0.0
2015-May-12 23:33N 49°18' W 123°05'0 0.0
2015-May-12 22:33N 49°18' W 123°05'0 0.0
2015-May-12 21:33N 49°18' W 123°05'0 0.0
2015-May-12 20:30N 49°18' W 123°05'0 0.0
2015-May-12 19:33N 49°18' W 123°05'0 0.0
2015-May-12 18:33N 49°18' W 123°05'0 0.0
2015-May-12 17:33N 49°18' W 123°05'0 0.0
2015-May-12 16:33N 49°18' W 123°05'0 0.0
2015-May-12 15:33N 49°18' W 123°05'0 0.0
2015-May-12 14:33N 49°18' W 123°05'0 0.0
2015-May-12 13:33N 49°18' W 123°05'0 0.0
2015-May-12 12:33N 49°18' W 123°05'0 0.0
2015-May-12 11:33N 49°18' W 123°05'0 0.0
2015-May-12 10:33N 49°18' W 123°05'0 0.0
2015-May-12 09:33N 49°18' W 123°05'0 0.0
2015-May-12 08:33N 49°18' W 123°05'0 0.0
2015-May-12 07:33N 49°18' W 123°05'0 0.0
2015-May-12 06:33N 49°18' W 123°05'0 0.0
2015-May-12 05:33N 49°18' W 123°05'0 0.0
2015-May-12 04:33N 49°18' W 123°05'0 0.0
2015-May-12 03:33N 49°18' W 123°05'0 0.0
2015-May-12 02:33N 49°18' W 123°05'0 0.0
2015-May-12 01:33N 49°18' W 123°05'0 0.0
2015-May-12 00:33N 49°18' W 123°05'0 0.0
2015-May-11 23:33N 49°18' W 123°05'0 0.0
2015-May-11 22:33N 49°18' W 123°05'0 0.0
2015-May-11 21:33N 49°18' W 123°05'0 0.0
2015-May-11 20:33N 49°18' W 123°05'0 0.0
2015-May-11 19:33N 49°18' W 123°05'0 0.0
2015-May-11 18:33N 49°18' W 123°05'0 0.0
2015-May-11 17:30N 49°18' W 123°05'0 0.0
2015-May-11 16:33N 49°18' W 123°05'0 0.0
2015-May-11 15:33N 49°18' W 123°05'0 0.0
2015-May-11 14:33N 49°18' W 123°05'0 0.0
2015-May-11 13:33N 49°18' W 123°05'0 0.0
2015-May-11 12:33N 49°18' W 123°05'0 0.0
2015-May-11 11:33N 49°18' W 123°05'0 0.0
2015-May-11 10:33N 49°18' W 123°05'0 0.0
2015-May-11 09:33N 49°18' W 123°05'0 0.0
2015-May-11 08:33N 49°18' W 123°05'0 0.0
2015-May-11 07:33N 49°18' W 123°05'0 0.0
2015-May-11 06:33N 49°18' W 123°05'0 0.0
2015-May-11 05:33N 49°18' W 123°05'  

Dump ship's entire track history